^^
Meteo Knjazevac Station Historical Data
Daily Summary for February 3, 2021 Units:  Metric    English   Both
Daily Weekly Monthly Yearly Custom
  High: Low: Average:
Temperature: 20.9 °C 12.6 °C 16.3 °C
Dew Point: 11.4 °C 7.1 °C 9.4 °C
Humidity: 80% 50% 64%
Wind Speed: 19.3km/h 0km/h 6.8km/h
Wind Gust: 30.6km/h - -
Wind- - WSW
Pressure: 1023.2 hPa 1014.4 hPa -
Precipitation: 0 mm    
Historical Graphs
 
 
Tabular Data for February 3, 2021
Time Temperature Dew Point Pressure Wind Wind Speed Wind Gust Humidity Rainfall Rate (Hourly) solar Conditions
00:00 18.7 °C 8.1 °C 1014.4 hPa West 9.7 km/h 12.9 km/h 50% 0 mm 0 W/m2
00:10 18.5 °C 8.4 °C 1014.4 hPa West 9.7 km/h 17.7 km/h 52% 0 mm 0 W/m2
00:20 18.4 °C 8.4 °C 1014.8 hPa WSW 8 km/h 12.9 km/h 52% 0 mm 0 W/m2
00:30 18.1 °C 8.4 °C 1014.8 hPa WSW 8 km/h 14.5 km/h 53% 0 mm 0 W/m2
00:40 18 °C 8.3 °C 1014.8 hPa WSW 9.7 km/h 14.5 km/h 53% 0 mm 0 W/m2
00:50 17.8 °C 8.1 °C 1014.8 hPa WSW 8 km/h 12.9 km/h 53% 0 mm 0 W/m2
01:00 17.7 °C 8.1 °C 1014.8 hPa SW 9.7 km/h 16.1 km/h 53% 0 mm 0 W/m2
01:10 17.6 °C 8.2 °C 1014.8 hPa WSW 11.3 km/h 19.3 km/h 54% 0 mm 0 W/m2
01:20 17.4 °C 8 °C 1015.1 hPa WSW 11.3 km/h 19.3 km/h 54% 0 mm 0 W/m2
01:30 17.5 °C 8.1 °C 1015.1 hPa WSW 11.3 km/h 19.3 km/h 54% 0 mm 0 W/m2
01:40 17.6 °C 7.9 °C 1015.1 hPa SW 14.5 km/h 22.5 km/h 53% 0 mm 0 W/m2
01:50 17.8 °C 8.1 °C 1015.1 hPa SW 12.9 km/h 20.9 km/h 53% 0 mm 0 W/m2
02:00 17.8 °C 8.6 °C 1015.5 hPa SW 12.9 km/h 20.9 km/h 55% 0 mm 0 W/m2
02:10 17.5 °C 9.7 °C 1015.5 hPa SW 12.9 km/h 22.5 km/h 60% 0 mm 0 W/m2
02:20 17.1 °C 10.4 °C 1015.5 hPa SW 12.9 km/h 22.5 km/h 65% 0 mm 0 W/m2
02:30 16.8 °C 10.8 °C 1015.8 hPa SW 11.3 km/h 20.9 km/h 68% 0 mm 0 W/m2
02:40 16.4 °C 10.9 °C 1015.8 hPa SW 9.7 km/h 19.3 km/h 70% 0 mm 0 W/m2
02:50 16.2 °C 11.2 °C 1016.1 hPa SW 8 km/h 19.3 km/h 72% 0 mm 0 W/m2
03:00 15.9 °C 11.3 °C 1016.1 hPa SW 9.7 km/h 19.3 km/h 74% 0 mm 0 W/m2
03:10 15.8 °C 11.4 °C 1016.1 hPa SW 8 km/h 19.3 km/h 75% 0 mm 0 W/m2
03:20 15.6 °C 11.2 °C 1016.1 hPa WSW 4.8 km/h 12.9 km/h 75% 0 mm 0 W/m2
03:30 15.3 °C 11.3 °C 1016.5 hPa WSW 9.7 km/h 12.9 km/h 77% 0 mm 0 W/m2
03:40 15.1 °C 11.1 °C 1016.8 hPa WSW 3.2 km/h 12.9 km/h 77% 0 mm 0 W/m2
03:50 14.8 °C 10.8 °C 1016.8 hPa WSW 4.8 km/h 12.9 km/h 77% 0 mm 0 W/m2
04:00 14.6 °C 10.6 °C 1016.8 hPa West 4.8 km/h 12.9 km/h 77% 0 mm 0 W/m2
04:10 14.4 °C 10.4 °C 1017.2 hPa WSW 4.8 km/h 12.9 km/h 77% 0 mm 0 W/m2
04:20 14.1 °C 10.3 °C 1017.2 hPa WSW 4.8 km/h 11.3 km/h 78% 0 mm 0 W/m2
04:30 13.9 °C 10.1 °C 1017.2 hPa WSW 8 km/h 12.9 km/h 78% 0 mm 0 W/m2
04:40 13.7 °C 10.1 °C 1017.2 hPa SW 9.7 km/h 14.5 km/h 79% 0 mm 0 W/m2
04:50 13.4 °C 9.8 °C 1017.5 hPa SW 12.9 km/h 16.1 km/h 79% 0 mm 0 W/m2
05:00 13.2 °C 9.6 °C 1017.5 hPa WSW 9.7 km/h 16.1 km/h 79% 0 mm 0 W/m2
05:10 12.9 °C 9.6 °C 1017.8 hPa WSW 4.8 km/h 16.1 km/h 80% 0 mm 0 W/m2
05:20 12.8 °C 9.4 °C 1017.8 hPa SW 4.8 km/h 12.9 km/h 80% 0 mm 2 W/m2
05:30 12.7 °C 9.3 °C 1018.2 hPa WSW 3.2 km/h 9.7 km/h 80% 0 mm 5 W/m2
05:40 12.7 °C 9.3 °C 1018.2 hPa SW 3.2 km/h 9.7 km/h 80% 0 mm 11 W/m2
05:50 12.7 °C 9.3 °C 1018.5 hPa SW 1.6 km/h 6.4 km/h 80% 0 mm 24 W/m2
06:00 12.6 °C 9.3 °C 1018.8 hPa Calm   4.8 km/h 80% 0 mm 37 W/m2
06:10 12.6 °C 9.2 °C 1018.8 hPa Calm   3.2 km/h 80% 0 mm 40 W/m2
06:20 12.6 °C 9.2 °C 1019.2 hPa WSW 3.2 km/h 4.8 km/h 80% 0 mm 61 W/m2
06:30 12.6 °C 9.2 °C 1019.2 hPa SW 4.8 km/h 9.7 km/h 80% 0 mm 95 W/m2
06:40 12.6 °C 9.2 °C 1019.2 hPa SW 4.8 km/h 9.7 km/h 80% 0 mm 68 W/m2
06:50 12.7 °C 9.2 °C 1019.5 hPa WSW 8 km/h 14.5 km/h 79% 0 mm 132 W/m2
07:10 13 °C 9.3 °C 1019.9 hPa SW 4.8 km/h 14.5 km/h 78% 0 mm 77 W/m2
07:20 13.1 °C 9.2 °C 1019.9 hPa SW 9.7 km/h 14.5 km/h 77% 0 mm 71 W/m2
07:30 13.2 °C 8.9 °C 1019.9 hPa SW 12.9 km/h 16.1 km/h 75% 0 mm 80 W/m2
07:40 13.3 °C 8.8 °C 1019.9 hPa SW 9.7 km/h 17.7 km/h 74% 0 mm 167 W/m2
07:50 13.5 °C 9.2 °C 1020.2 hPa SSW 8 km/h 12.9 km/h 75% 0 mm 127 W/m2
08:00 13.6 °C 9.2 °C 1020.2 hPa SW 4.8 km/h 11.3 km/h 75% 0 mm 80 W/m2
08:10 13.6 °C 9.2 °C 1020.2 hPa SW 4.8 km/h 9.7 km/h 75% 0 mm 83 W/m2
08:20 13.6 °C 9.2 °C 1020.2 hPa SW 3.2 km/h 9.7 km/h 75% 0 mm 119 W/m2
08:30 13.7 °C 9.3 °C 1020.2 hPa SW 3.2 km/h 8 km/h 75% 0 mm 163 W/m2
08:40 13.9 °C 9.6 °C 1020.2 hPa SW 8 km/h 11.3 km/h 75% 0 mm 154 W/m2
08:50 14.1 °C 9.5 °C 1020.5 hPa SW 8 km/h 11.3 km/h 74% 0 mm 133 W/m2
09:00 14.2 °C 9.6 °C 1020.5 hPa SW 4.8 km/h 9.7 km/h 74% 0 mm 146 W/m2
09:10 14.2 °C 9.4 °C 1020.2 hPa SW 4.8 km/h 11.3 km/h 73% 0 mm 139 W/m2
09:20 14.4 °C 9.4 °C 1020.2 hPa SW 4.8 km/h 12.9 km/h 72% 0 mm 278 W/m2
09:30 14.7 °C 9.1 °C 1020.2 hPa WSW 8 km/h 12.9 km/h 69% 0 mm 231 W/m2
09:40 14.8 °C 9.2 °C 1020.2 hPa WSW 3.2 km/h 9.7 km/h 69% 0 mm 279 W/m2
09:50 15.1 °C 9.7 °C 1020.5 hPa WSW 3.2 km/h 8 km/h 70% 0 mm 451 W/m2
10:00 15.4 °C 9.9 °C 1020.5 hPa West 1.6 km/h 11.3 km/h 70% 0 mm 240 W/m2
10:10 15.7 °C 10 °C 1020.5 hPa West 3.2 km/h 8 km/h 69% 0 mm 335 W/m2
10:20 16 °C 10.3 °C 1020.5 hPa West 8 km/h 22.5 km/h 69% 0 mm 356 W/m2
10:30 16.3 °C 9.5 °C 1020.5 hPa West 9.7 km/h 22.5 km/h 64% 0 mm 325 W/m2
10:40 16.3 °C 9.5 °C 1020.5 hPa SW 9.7 km/h 14.5 km/h 64% 0 mm 351 W/m2
10:50 16.7 °C 9.8 °C 1020.5 hPa WSW 9.7 km/h 16.1 km/h 64% 0 mm 830 W/m2
11:00 17.3 °C 10.2 °C 1020.5 hPa WSW 9.7 km/h 19.3 km/h 63% 0 mm 859 W/m2
11:10 18.1 °C 10.7 °C 1020.2 hPa West 12.9 km/h 20.9 km/h 62% 0 mm 787 W/m2
11:20 18 °C 10.1 °C 1020.2 hPa SW 11.3 km/h 20.9 km/h 60% 0 mm 355 W/m2
11:30 17.8 °C 9.7 °C 1020.2 hPa WSW 12.9 km/h 19.3 km/h 59% 0 mm 271 W/m2
11:40 17.7 °C 9.6 °C 1020.2 hPa WSW 11.3 km/h 19.3 km/h 59% 0 mm 266 W/m2
11:50 17.8 °C 9.7 °C 1020.2 hPa WSW 9.7 km/h 17.7 km/h 59% 0 mm 357 W/m2
12:00 17.9 °C 9.8 °C 1020.2 hPa WSW 9.7 km/h 19.3 km/h 59% 0 mm 267 W/m2
12:10 18 °C 9.6 °C 1020.2 hPa WSW 11.3 km/h 17.7 km/h 58% 0 mm 226 W/m2
12:20 17.9 °C 9.5 °C 1020.2 hPa WSW 8 km/h 12.9 km/h 58% 0 mm 279 W/m2
12:30 18 °C 9.6 °C 1020.2 hPa West 9.7 km/h 14.5 km/h 58% 0 mm 238 W/m2
12:40 18 °C 9.6 °C 1019.9 hPa West 11.3 km/h 16.1 km/h 58% 0 mm 333 W/m2
12:50 18.2 °C 9.8 °C 1019.9 hPa WSW 4.8 km/h 12.9 km/h 58% 0 mm 337 W/m2
13:00 18.5 °C 9.8 °C 1019.9 hPa West 9.7 km/h 16.1 km/h 57% 0 mm 630 W/m2
13:10 18.9 °C 10.2 °C 1019.9 hPa WSW 8 km/h 20.9 km/h 57% 0 mm 902 W/m2
13:20 19.6 °C 10.1 °C 1019.9 hPa WSW 12.9 km/h 20.9 km/h 54% 0 mm 894 W/m2
13:30 19.9 °C 10.1 °C 1019.9 hPa WSW 12.9 km/h 19.3 km/h 53% 0 mm 667 W/m2
13:40 20.2 °C 10.3 °C 1019.5 hPa WSW 14.5 km/h 24.1 km/h 53% 0 mm 872 W/m2
13:50 20.6 °C 10.7 °C 1019.2 hPa WSW 11.3 km/h 24.1 km/h 53% 0 mm 862 W/m2
14:00 20.7 °C 10.8 °C 1019.5 hPa West 9.7 km/h 27.4 km/h 53% 0 mm 781 W/m2
14:10 20.9 °C 10.9 °C 1019.5 hPa West 16.1 km/h 24.1 km/h 53% 0 mm 751 W/m2
14:20 20.9 °C 10.7 °C 1019.5 hPa West 19.3 km/h 30.6 km/h 52% 0 mm 757 W/m2
14:40 20.5 °C 10.6 °C 1019.5 hPa West 11.3 km/h 27.4 km/h 53% 0 mm 524 W/m2
14:50 20.3 °C 10.4 °C 1019.5 hPa West 11.3 km/h 25.7 km/h 53% 0 mm 399 W/m2
15:00 20.2 °C 10.3 °C 1019.5 hPa WNW 9.7 km/h 20.9 km/h 53% 0 mm 411 W/m2
15:10 20.1 °C 10.2 °C 1019.5 hPa West 12.9 km/h 20.9 km/h 53% 0 mm 413 W/m2
15:20 20 °C 10.4 °C 1019.5 hPa WSW 9.7 km/h 19.3 km/h 54% 0 mm 426 W/m2
15:30 20 °C 9.8 °C 1019.5 hPa WSW 8 km/h 12.9 km/h 52% 0 mm 460 W/m2
15:40 20.2 °C 10.3 °C 1019.5 hPa WNW 8 km/h 12.9 km/h 53% 0 mm 440 W/m2
15:50 20.2 °C 10.1 °C 1019.2 hPa NNW 3.2 km/h 12.9 km/h 52% 0 mm 315 W/m2
16:00 20.1 °C 10.2 °C 1019.5 hPa North 4.8 km/h 12.9 km/h 53% 0 mm 280 W/m2
16:10 19.8 °C 10.2 °C 1019.5 hPa North 11.3 km/h 19.3 km/h 54% 0 mm 254 W/m2
16:20 19.6 °C 10.1 °C 1019.5 hPa North 8 km/h 12.9 km/h 54% 0 mm 244 W/m2
16:30 19.4 °C 10.1 °C 1019.5 hPa North 8 km/h 12.9 km/h 55% 0 mm 225 W/m2
16:40 19.2 °C 9.9 °C 1019.5 hPa North 3.2 km/h 14.5 km/h 55% 0 mm 197 W/m2
16:50 19 °C 9.8 °C 1019.5 hPa NNE 4.8 km/h 14.5 km/h 55% 0 mm 197 W/m2
17:00 18.9 °C 9.7 °C 1019.9 hPa North 3.2 km/h 19.3 km/h 55% 0 mm 159 W/m2
17:10 18.7 °C 10 °C 1019.5 hPa North 8 km/h 14.5 km/h 57% 0 mm 146 W/m2
17:20 18.6 °C 9.9 °C 1019.9 hPa North 4.8 km/h 14.5 km/h 57% 0 mm 159 W/m2
17:30 18.6 °C 9.9 °C 1019.9 hPa North 3.2 km/h 11.3 km/h 57% 0 mm 172 W/m2
17:40 18.7 °C 9.4 °C 1019.5 hPa NNE 8 km/h 11.3 km/h 55% 0 mm 204 W/m2
17:50 18.6 °C 9.4 °C 1019.5 hPa North 8 km/h 11.3 km/h 55% 0 mm 149 W/m2
18:00 18.5 °C 9.3 °C 1019.5 hPa North 3.2 km/h 12.9 km/h 55% 0 mm 133 W/m2
18:10 18.4 °C 9.7 °C 1019.5 hPa North 1.6 km/h 8 km/h 57% 0 mm 115 W/m2
18:20 18.3 °C 9.6 °C 1019.9 hPa NNW 1.6 km/h 11.3 km/h 57% 0 mm 118 W/m2
18:30 18.2 °C 9.6 °C 1019.9 hPa NNW 1.6 km/h 9.7 km/h 57% 0 mm 95 W/m2
18:40 18.1 °C 9.4 °C 1019.9 hPa NNW 3.2 km/h 8 km/h 57% 0 mm 74 W/m2
18:50 17.9 °C 9.3 °C 1019.9 hPa NNE 9.7 km/h 11.3 km/h 57% 0 mm 44 W/m2
19:00 17.6 °C 9 °C 1019.9 hPa NNW 4.8 km/h 11.3 km/h 57% 0 mm 30 W/m2
19:10 17.3 °C 8.9 °C 1020.2 hPa North 3.2 km/h 12.9 km/h 58% 0 mm 20 W/m2
19:20 17 °C 8.7 °C 1020.2 hPa NNW 9.7 km/h 14.5 km/h 58% 0 mm 10 W/m2
19:30 16.6 °C 8.6 °C 1020.2 hPa NNW 8 km/h 14.5 km/h 59% 0 mm 3 W/m2
19:40 16.4 °C 8.4 °C 1020.2 hPa NW 8 km/h 16.1 km/h 59% 0 mm 0 W/m2
19:50 16.2 °C 8.4 °C 1020.2 hPa NNW 4.8 km/h 16.1 km/h 60% 0 mm 0 W/m2
20:00 15.9 °C 8.6 °C 1020.2 hPa NNW 1.6 km/h 11.3 km/h 62% 0 mm 0 W/m2
20:10 15.7 °C 8.4 °C 1020.5 hPa North 3.2 km/h 11.3 km/h 62% 0 mm 0 W/m2
20:20 15.5 °C 8.2 °C 1020.5 hPa NNW 8 km/h 12.9 km/h 62% 0 mm 0 W/m2
20:30 15.3 °C 8.1 °C 1020.9 hPa North 3.2 km/h 9.7 km/h 62% 0 mm 0 W/m2
20:40 15.2 °C 8.2 °C 1020.9 hPa NNE 3.2 km/h 6.4 km/h 63% 0 mm 0 W/m2
20:50 15 °C 8.2 °C 1020.9 hPa NNE 1.6 km/h 8 km/h 64% 0 mm 0 W/m2
21:00 14.9 °C 8.2 °C 1021.2 hPa North 1.6 km/h 4.8 km/h 64% 0 mm 0 W/m2
21:10 14.8 °C 8.1 °C 1021.2 hPa NNE 3.2 km/h 6.4 km/h 64% 0 mm 0 W/m2
21:20 14.7 °C 8.2 °C 1021.2 hPa Calm   4.8 km/h 65% 0 mm 0 W/m2
21:30 14.5 °C 8.4 °C 1021.6 hPa Calm   3.2 km/h 67% 0 mm 0 W/m2
21:40 14.4 °C 8.3 °C 1021.6 hPa Calm     67% 0 mm 0 W/m2
21:50 14.4 °C 8.6 °C 1021.6 hPa Calm   1.6 km/h 68% 0 mm 0 W/m2
22:00 14.2 °C 8.6 °C 1021.6 hPa Calm   3.2 km/h 69% 0 mm 0 W/m2
22:10 14.2 °C 7.7 °C 1021.6 hPa NNW 3.2 km/h 4.8 km/h 65% 0 mm 0 W/m2
22:20 14.1 °C 7.6 °C 1022.6 hPa Calm   3.2 km/h 65% 0 mm 0 W/m2
22:30 14.1 °C 8.7 °C 1022.6 hPa NW 3.2 km/h 4.8 km/h 70% 0 mm 0 W/m2
22:40 14 °C 7.5 °C 1022.6 hPa North 3.2 km/h 6.4 km/h 65% 0 mm 0 W/m2
22:50 14 °C 7.3 °C 1022.6 hPa North 3.2 km/h 8 km/h 64% 0 mm 0 W/m2
23:00 13.9 °C 7.2 °C 1022.6 hPa North 4.8 km/h 8 km/h 64% 0 mm 0 W/m2
23:10 13.9 °C 7.2 °C 1022.6 hPa NNW 1.6 km/h 8 km/h 64% 0 mm 0 W/m2
23:20 13.8 °C 7.1 °C 1022.6 hPa Calm   4.8 km/h 64% 0 mm 0 W/m2
23:30 13.7 °C 7.2 °C 1022.9 hPa Calm   4.8 km/h 65% 0 mm 0 W/m2
23:40 13.6 °C 8 °C 1022.9 hPa Calm   3.2 km/h 69% 0 mm 0 W/m2
23:50 13.5 °C 7.9 °C 1023.2 hPa Calm   3.2 km/h 69% 0 mm 0 W/m2
Knjazevac, Serbia
Compliments of Weather Underground - 2 mb